PWSweather.com
Personal Weather Stations
Station Observations
UISISLE1
Newport, Isle ofWight, ISLE OF WIGHT PO30 2JX

NewportIsle ofWight, ISLE OF WIGHT PO30 2JX

Lat: 50.72, Lon: -1.27

Elevation: 45

Station Type: Davis Vantage Pro Plus

http://www.isleofwightweather.co.uk

High Low Average
Temperature 63.7°F17.6°C 53.0°F11.7°C 58.1°F14.5°C
Dew Point 62.1°F16.7°C 50.6°F10.3°C 55.7°F13.2°C
Winds 6.7 mph 10.8 kmh Calm Calm 1.0 mph S1.6 kmh S
Wind Gusts 11.0 mph17.7 kmh -- 3.0 mph4.8 kmh
Humidity 97% 85% 92%
Pressure 30.05 in1017.6 mb 29.94 in1013.9 mb -
Precipitation 0.00 in0.0 mm - -
Hour Temp Dew Point Humidity Winds Wind Gusts Pressure Precip Precip Rate Daily Precip Total
12:00 AM 53.9°F12.2°C 52.5°F11.4°C 95% Calm Calm -- 29.96 in1014.6 mb - 0.00 in0.0 mm 0.00 in0.0 mm
12:15 AM 53.7°F12.1°C 52.3°F11.3°C 95% Calm Calm -- 29.95 in1014.2 mb - 0.00 in0.0 mm 0.00 in0.0 mm
12:30 AM 53.6°F12.0°C 52.2°F11.2°C 95% Calm Calm -- 29.95 in1014.2 mb - 0.00 in0.0 mm 0.00 in0.0 mm
12:45 AM 53.4°F11.9°C 52.0°F11.1°C 95% Calm Calm -- 29.95 in1014.2 mb - 0.00 in0.0 mm 0.00 in0.0 mm
01:00 AM 53.2°F11.8°C 51.8°F11.0°C 95% Calm Calm -- 29.95 in1014.2 mb - 0.00 in0.0 mm 0.00 in0.0 mm
01:15 AM 53.0°F11.7°C 51.6°F10.9°C 95% Calm Calm -- 29.95 in1014.2 mb - 0.00 in0.0 mm 0.00 in0.0 mm
01:30 AM 53.1°F11.7°C 51.7°F10.9°C 95% Calm Calm -- 29.96 in1014.6 mb - 0.00 in0.0 mm 0.00 in0.0 mm
01:45 AM 53.3°F11.8°C 51.9°F11.1°C 95% Calm Calm -- 29.95 in1014.2 mb - 0.00 in0.0 mm 0.00 in0.0 mm
02:00 AM 53.6°F12.0°C 52.2°F11.2°C 95% Calm Calm -- 29.95 in1014.2 mb - 0.00 in0.0 mm 0.00 in0.0 mm
02:15 AM 53.9°F12.2°C 52.5°F11.4°C 95% Calm Calm -- 29.94 in1013.9 mb - 0.00 in0.0 mm 0.00 in0.0 mm
02:30 AM 54.2°F12.3°C 53.1°F11.7°C 96% Calm Calm -- 29.94 in1013.9 mb - 0.00 in0.0 mm 0.00 in0.0 mm
02:45 AM 54.6°F12.6°C 53.5°F11.9°C 96% Calm Calm -- 29.94 in1013.9 mb - 0.00 in0.0 mm 0.00 in0.0 mm
03:00 AM 55.0°F12.8°C 53.8°F12.1°C 96% Calm Calm -- 29.94 in1013.9 mb - 0.00 in0.0 mm 0.00 in0.0 mm
03:15 AM 55.0°F12.8°C 53.9°F12.2°C 96% Calm Calm -- 29.94 in1013.9 mb - 0.00 in0.0 mm 0.00 in0.0 mm
03:30 AM 55.1°F12.8°C 54.0°F12.2°C 96% Calm Calm -- 29.94 in1013.9 mb - 0.00 in0.0 mm 0.00 in0.0 mm
03:45 AM 55.2°F12.9°C 54.0°F12.2°C 96% Calm Calm -- 29.94 in1013.9 mb - 0.00 in0.0 mm 0.00 in0.0 mm
04:00 AM 55.3°F12.9°C 54.2°F12.3°C 96% Calm Calm -- 29.94 in1013.9 mb - 0.00 in0.0 mm 0.00 in0.0 mm
04:15 AM 55.6°F13.1°C 54.5°F12.5°C 96% Calm Calm -- 29.94 in1013.9 mb - 0.00 in0.0 mm 0.00 in0.0 mm
04:30 AM 55.9°F13.3°C 54.8°F12.7°C 96% Calm Calm -- 29.94 in1013.9 mb - 0.00 in0.0 mm 0.00 in0.0 mm
04:45 AM 56.1°F13.4°C 55.0°F12.8°C 96% Calm Calm -- 29.94 in1013.9 mb - 0.00 in0.0 mm 0.00 in0.0 mm
05:00 AM 56.5°F13.6°C 55.4°F13.0°C 96% Calm Calm 1.0 mph1.6 kmh 29.95 in1014.2 mb - 0.00 in0.0 mm 0.00 in0.0 mm
05:15 AM 57.2°F14.0°C 56.4°F13.6°C 97% Calm Calm -- 29.95 in1014.2 mb - 0.00 in0.0 mm 0.00 in0.0 mm
05:30 AM 57.8°F14.3°C 57.0°F13.9°C 97% 0.5 mph E0.8 kmh E 1.0 mph1.6 kmh 29.95 in1014.2 mb - 0.00 in0.0 mm 0.00 in0.0 mm
05:45 AM 58.3°F14.6°C 57.5°F14.2°C 97% Calm Calm -- 29.95 in1014.2 mb - 0.00 in0.0 mm 0.00 in0.0 mm
06:00 AM 58.5°F14.7°C 57.7°F14.3°C 97% Calm Calm -- 29.95 in1014.2 mb - 0.00 in0.0 mm 0.00 in0.0 mm
06:15 AM 58.4°F14.7°C 57.6°F14.2°C 97% Calm Calm -- 29.96 in1014.6 mb - 0.00 in0.0 mm 0.00 in0.0 mm
06:30 AM 58.3°F14.6°C 57.4°F14.1°C 97% Calm Calm -- 29.96 in1014.6 mb - 0.00 in0.0 mm 0.00 in0.0 mm
06:45 AM 58.2°F14.6°C 57.4°F14.1°C 97% Calm Calm -- 29.96 in1014.6 mb - 0.00 in0.0 mm 0.00 in0.0 mm
07:00 AM 58.1°F14.5°C 57.3°F14.1°C 97% Calm Calm -- 29.97 in1014.9 mb - 0.00 in0.0 mm 0.00 in0.0 mm
07:15 AM 58.0°F14.4°C 57.2°F14.0°C 97% 0.1 mph S0.2 kmh S -- 29.98 in1015.2 mb - 0.00 in0.0 mm 0.00 in0.0 mm
07:30 AM 58.0°F14.4°C 57.2°F14.0°C 97% Calm Calm -- 29.98 in1015.2 mb - 0.00 in0.0 mm 0.00 in0.0 mm
07:45 AM 58.0°F14.4°C 57.2°F14.0°C 97% Calm Calm -- 29.98 in1015.2 mb - 0.00 in0.0 mm 0.00 in0.0 mm
08:00 AM 58.1°F14.5°C 57.2°F14.0°C 97% Calm Calm -- 29.98 in1015.2 mb - 0.00 in0.0 mm 0.00 in0.0 mm
08:15 AM 58.2°F14.6°C 57.4°F14.1°C 97% Calm Calm -- 29.98 in1015.2 mb - 0.00 in0.0 mm 0.00 in0.0 mm
08:30 AM 58.5°F14.7°C 57.6°F14.2°C 97% Calm Calm -- 29.98 in1015.2 mb - 0.00 in0.0 mm 0.00 in0.0 mm
08:45 AM 58.8°F14.9°C 58.0°F14.4°C 97% 1.9 mph SW3.1 kmh SW 4.0 mph6.4 kmh 29.98 in1015.2 mb - 0.00 in0.0 mm 0.00 in0.0 mm
09:00 AM 59.6°F15.3°C 58.8°F14.9°C 97% 2.5 mph SSW4.0 kmh SSW 6.0 mph9.7 kmh 29.99 in1015.6 mb - 0.00 in0.0 mm 0.00 in0.0 mm
09:15 AM 60.2°F15.7°C 59.3°F15.2°C 97% 2.7 mph SSW4.3 kmh SSW 3.0 mph4.8 kmh 29.99 in1015.6 mb - 0.00 in0.0 mm 0.00 in0.0 mm
09:30 AM 60.9°F16.1°C 60.0°F15.6°C 97% 3.9 mph SW6.3 kmh SW 9.0 mph14.5 kmh 29.99 in1015.6 mb - 0.00 in0.0 mm 0.00 in0.0 mm
09:45 AM 61.0°F16.1°C 60.1°F15.6°C 97% 3.1 mph S5.0 kmh S 4.0 mph6.4 kmh 29.98 in1015.2 mb - 0.00 in0.0 mm 0.00 in0.0 mm
10:00 AM 61.7°F16.5°C 60.9°F16.1°C 97% 0.6 mph SSE1.0 kmh SSE 6.0 mph9.7 kmh 29.98 in1015.2 mb - 0.00 in0.0 mm 0.00 in0.0 mm
10:15 AM 62.5°F16.9°C 61.3°F16.3°C 96% 0.7 mph SW1.1 kmh SW 3.0 mph4.8 kmh 29.98 in1015.2 mb - 0.00 in0.0 mm 0.00 in0.0 mm
10:30 AM 63.3°F17.4°C 62.1°F16.7°C 96% 1.5 mph SSE2.4 kmh SSE 4.0 mph6.4 kmh 29.98 in1015.2 mb - 0.00 in0.0 mm 0.00 in0.0 mm
10:45 AM 63.7°F17.6°C 61.9°F16.6°C 94% 2.5 mph S4.0 kmh S 8.0 mph12.9 kmh 29.98 in1015.2 mb - 0.00 in0.0 mm 0.00 in0.0 mm
11:00 AM 63.6°F17.6°C 60.9°F16.1°C 91% 6.0 mph SW9.7 kmh SW 8.0 mph12.9 kmh 29.99 in1015.6 mb - 0.00 in0.0 mm 0.00 in0.0 mm
11:15 AM 63.4°F17.4°C 60.1°F15.6°C 89% 4.6 mph SSW7.4 kmh SSW 11.0 mph17.7 kmh 29.99 in1015.6 mb - 0.00 in0.0 mm 0.00 in0.0 mm
11:30 AM 63.4°F17.4°C 59.8°F15.4°C 88% 5.8 mph SW9.3 kmh SW 11.0 mph17.7 kmh 29.99 in1015.6 mb - 0.00 in0.0 mm 0.00 in0.0 mm
11:45 AM 63.0°F17.2°C 59.4°F15.2°C 88% 5.0 mph SW8.0 kmh SW 10.0 mph16.1 kmh 30.00 in1015.9 mb - 0.00 in0.0 mm 0.00 in0.0 mm
12:00 PM 62.7°F17.1°C 59.1°F15.1°C 88% 4.5 mph WSW7.2 kmh WSW 5.0 mph8.0 kmh 30.00 in1015.9 mb - 0.00 in0.0 mm 0.00 in0.0 mm
12:15 PM 62.4°F16.9°C 59.2°F15.1°C 89% 1.6 mph SW2.6 kmh SW 4.0 mph6.4 kmh 30.00 in1015.9 mb - 0.00 in0.0 mm 0.00 in0.0 mm
12:30 PM 62.4°F16.9°C 59.1°F15.1°C 89% 4.3 mph SW6.9 kmh SW 10.0 mph16.1 kmh 30.00 in1015.9 mb - 0.00 in0.0 mm 0.00 in0.0 mm
12:45 PM 62.3°F16.8°C 59.0°F15.0°C 89% 2.4 mph SW3.9 kmh SW 8.0 mph12.9 kmh 30.00 in1015.9 mb - 0.00 in0.0 mm 0.00 in0.0 mm
01:00 PM 62.3°F16.8°C 59.0°F15.0°C 89% 4.4 mph WSW7.1 kmh WSW 8.0 mph12.9 kmh 30.00 in1015.9 mb - 0.00 in0.0 mm 0.00 in0.0 mm
01:15 PM 62.4°F16.9°C 59.1°F15.1°C 89% 1.2 mph SE1.9 kmh SE 6.0 mph9.7 kmh 29.99 in1015.6 mb - 0.00 in0.0 mm 0.00 in0.0 mm
01:30 PM 62.8°F17.1°C 59.8°F15.4°C 90% 5.2 mph SW8.4 kmh SW 9.0 mph14.5 kmh 30.00 in1015.9 mb - 0.00 in0.0 mm 0.00 in0.0 mm
01:45 PM 62.8°F17.1°C 59.8°F15.4°C 90% 3.9 mph SW6.3 kmh SW 7.0 mph11.3 kmh 30.00 in1015.9 mb - 0.00 in0.0 mm 0.00 in0.0 mm
02:00 PM 62.5°F16.9°C 59.2°F15.1°C 89% 3.0 mph WSW4.8 kmh WSW 8.2 mph13.2 kmh 30.00 in1015.9 mb - 0.00 in0.0 mm 0.00 in0.0 mm
02:15 PM 61.9°F16.6°C 58.0°F14.4°C 87% 6.7 mph SW10.8 kmh SW 10.0 mph16.1 kmh 30.01 in1016.3 mb - 0.00 in0.0 mm 0.00 in0.0 mm
02:30 PM 61.6°F16.4°C 57.7°F14.3°C 87% 1.0 mph WSW1.6 kmh WSW 5.0 mph8.0 kmh 30.01 in1016.3 mb - 0.00 in0.0 mm 0.00 in0.0 mm
02:45 PM 61.1°F16.2°C 57.2°F14.0°C 87% 1.7 mph W2.7 kmh W 6.0 mph9.7 kmh 30.00 in1015.9 mb - 0.00 in0.0 mm 0.00 in0.0 mm
03:00 PM 61.1°F16.2°C 56.8°F13.8°C 86% 0.9 mph WSW1.4 kmh WSW 2.0 mph3.2 kmh 30.00 in1015.9 mb - 0.00 in0.0 mm 0.00 in0.0 mm
03:15 PM 61.0°F16.1°C 56.8°F13.8°C 86% 2.6 mph WNW4.2 kmh WNW 6.0 mph9.7 kmh 30.00 in1015.9 mb - 0.00 in0.0 mm 0.00 in0.0 mm
03:30 PM 60.9°F16.1°C 56.4°F13.6°C 85% 2.6 mph W4.2 kmh W 6.0 mph9.7 kmh 30.01 in1016.3 mb - 0.00 in0.0 mm 0.00 in0.0 mm
03:45 PM 60.8°F16.0°C 56.2°F13.4°C 85% 3.5 mph SW5.6 kmh SW 4.0 mph6.4 kmh 30.01 in1016.3 mb - 0.00 in0.0 mm 0.00 in0.0 mm
04:00 PM 60.6°F15.9°C 56.4°F13.6°C 86% 1.3 mph W2.1 kmh W 5.0 mph8.0 kmh 30.01 in1016.3 mb - 0.00 in0.0 mm 0.00 in0.0 mm
04:15 PM 60.5°F15.8°C 56.3°F13.5°C 86% 2.8 mph SW4.5 kmh SW 5.1 mph8.2 kmh 30.02 in1016.6 mb - 0.00 in0.0 mm 0.00 in0.0 mm
04:30 PM 60.2°F15.7°C 56.0°F13.3°C 86% 1.4 mph SW2.3 kmh SW 4.0 mph6.4 kmh 30.02 in1016.6 mb - 0.00 in0.0 mm 0.00 in0.0 mm
04:45 PM 59.9°F15.5°C 56.1°F13.4°C 87% 3.8 mph SW6.1 kmh SW 7.0 mph11.3 kmh 30.02 in1016.6 mb - 0.00 in0.0 mm 0.00 in0.0 mm
05:15 PM 59.4°F15.2°C 55.5°F13.1°C 87% 0.5 mph SW0.8 kmh SW 2.0 mph3.2 kmh 30.03 in1016.9 mb - 0.00 in0.0 mm 0.00 in0.0 mm
05:30 PM 59.1°F15.1°C 55.2°F12.9°C 87% 1.8 mph WSW2.9 kmh WSW 3.0 mph4.8 kmh 30.04 in1017.3 mb - 0.00 in0.0 mm 0.00 in0.0 mm
06:15 PM 58.3°F14.6°C 54.4°F12.4°C 87% 1.8 mph W2.9 kmh W 4.1 mph6.6 kmh 30.04 in1017.3 mb - 0.00 in0.0 mm 0.00 in0.0 mm
07:00 PM 58.0°F14.4°C 54.2°F12.3°C 87% 0.3 mph SW0.5 kmh SW -- 30.05 in1017.6 mb - 0.00 in0.0 mm 0.00 in0.0 mm
07:15 PM 57.9°F14.4°C 54.1°F12.3°C 87% 1.7 mph W2.7 kmh W 4.1 mph6.6 kmh 30.05 in1017.6 mb - 0.00 in0.0 mm 0.00 in0.0 mm
07:30 PM 57.9°F14.4°C 54.0°F12.2°C 87% 2.6 mph WSW4.2 kmh WSW 4.0 mph6.4 kmh 30.05 in1017.6 mb - 0.00 in0.0 mm 0.00 in0.0 mm
07:45 PM 57.8°F14.3°C 54.0°F12.2°C 87% 4.3 mph W6.9 kmh W 7.2 mph11.6 kmh 30.05 in1017.6 mb - 0.00 in0.0 mm 0.00 in0.0 mm
08:00 PM 57.5°F14.2°C 53.7°F12.1°C 87% 0.1 mph W0.2 kmh W 2.0 mph3.2 kmh 30.05 in1017.6 mb - 0.00 in0.0 mm 0.00 in0.0 mm
08:15 PM 57.1°F13.9°C 53.3°F11.8°C 87% Calm Calm -- 30.05 in1017.6 mb - 0.00 in0.0 mm 0.00 in0.0 mm
08:30 PM 56.7°F13.7°C 52.9°F11.6°C 87% 0.3 mph WSW0.5 kmh WSW -- 30.05 in1017.6 mb - 0.00 in0.0 mm 0.00 in0.0 mm
08:45 PM 56.2°F13.4°C 52.4°F11.3°C 87% Calm Calm -- 30.05 in1017.6 mb - 0.00 in0.0 mm 0.00 in0.0 mm
09:00 PM 55.4°F13.0°C 51.3°F10.7°C 86% 0.6 mph SW1.0 kmh SW 2.0 mph3.2 kmh 30.05 in1017.6 mb - 0.00 in0.0 mm 0.00 in0.0 mm
09:15 PM 54.8°F12.7°C 51.0°F10.6°C 87% Calm Calm -- 30.05 in1017.6 mb - 0.00 in0.0 mm 0.00 in0.0 mm
09:30 PM 54.4°F12.4°C 50.6°F10.3°C 87% Calm Calm -- 30.05 in1017.6 mb - 0.00 in0.0 mm 0.00 in0.0 mm
09:45 PM 54.1°F12.3°C 50.6°F10.3°C 88% Calm Calm -- 30.05 in1017.6 mb - 0.00 in0.0 mm 0.00 in0.0 mm
10:00 PM 53.9°F12.2°C 50.7°F10.4°C 89% 2.6 mph WSW4.2 kmh WSW 5.1 mph8.2 kmh 30.05 in1017.6 mb - 0.00 in0.0 mm 0.00 in0.0 mm
10:15 PM 54.0°F12.2°C 51.1°F10.6°C 90% 0.8 mph WSW1.3 kmh WSW 4.0 mph6.4 kmh 30.05 in1017.6 mb - 0.00 in0.0 mm 0.00 in0.0 mm
10:30 PM 54.4°F12.4°C 51.8°F11.0°C 91% 2.8 mph SW4.5 kmh SW 6.2 mph10.0 kmh 30.05 in1017.6 mb - 0.00 in0.0 mm 0.00 in0.0 mm
10:45 PM 54.9°F12.7°C 52.3°F11.3°C 91% 2.6 mph WSW4.2 kmh WSW 5.0 mph8.0 kmh 30.05 in1017.6 mb - 0.00 in0.0 mm 0.00 in0.0 mm
11:00 PM 55.2°F12.9°C 52.6°F11.4°C 91% 0.9 mph WSW1.4 kmh WSW 2.0 mph3.2 kmh 30.05 in1017.6 mb - 0.00 in0.0 mm 0.00 in0.0 mm
11:15 PM 55.5°F13.1°C 52.6°F11.4°C 90% 2.0 mph SW3.2 kmh SW 6.0 mph9.7 kmh 30.05 in1017.6 mb - 0.00 in0.0 mm 0.00 in0.0 mm
11:30 PM 55.9°F13.3°C 53.0°F11.7°C 90% 2.3 mph SW3.7 kmh SW 6.0 mph9.7 kmh 30.05 in1017.6 mb - 0.00 in0.0 mm 0.00 in0.0 mm
11:45 PM 56.2°F13.4°C 53.0°F11.7°C 89% 4.5 mph SW7.2 kmh SW 9.0 mph14.5 kmh 30.05 in1017.6 mb - 0.00 in0.0 mm 0.00 in0.0 mm